createdAt,value
2019-03-03T00:00:50.566Z,1015.5
2019-03-03T00:01:50.605Z,1015.5
2019-03-03T00:02:50.612Z,1015.4
2019-03-03T00:03:50.666Z,1015.5
2019-03-03T00:04:50.624Z,1015.4
2019-03-03T00:05:50.627Z,1015.5
2019-03-03T00:06:50.633Z,1015.4
2019-03-03T00:07:50.692Z,1015.4
2019-03-03T00:08:50.703Z,1015.6
2019-03-03T00:09:50.747Z,1015.4
2019-03-03T00:10:50.710Z,1015.4
2019-03-03T00:11:50.782Z,1015.5
2019-03-03T00:12:50.762Z,1015.5
2019-03-03T00:13:50.764Z,1015.5
2019-03-03T00:14:50.762Z,1015.4
2019-03-03T00:15:53.047Z,1015.3
2019-03-03T00:16:50.816Z,1015.3
2019-03-03T00:17:50.845Z,1015.3
2019-03-03T00:18:50.795Z,1015.4
2019-03-03T00:19:50.839Z,1015.3
2019-03-03T00:20:50.842Z,1015.3
2019-03-03T00:21:50.818Z,1015.2
2019-03-03T00:22:50.823Z,1015.2
2019-03-03T00:23:50.870Z,1015.3
2019-03-03T00:24:50.882Z,1015.2
2019-03-03T00:25:50.858Z,1015.3
2019-03-03T00:26:50.885Z,1015.2
2019-03-03T00:27:50.881Z,1015.2
2019-03-03T00:28:50.888Z,1015.2
2019-03-03T00:29:50.991Z,1015.2
2019-03-03T00:30:50.884Z,1015.1
2019-03-03T00:31:50.897Z,1015.1
2019-03-03T00:32:50.923Z,1015.1
2019-03-03T00:33:50.899Z,1015.1
2019-03-03T00:34:50.884Z,1015.1
2019-03-03T00:35:50.883Z,1015.1
2019-03-03T00:37:50.977Z,1015
2019-03-03T00:38:50.936Z,1015
2019-03-03T00:39:51.034Z,1015
2019-03-03T00:40:50.946Z,1015
2019-03-03T00:41:50.977Z,1015
2019-03-03T00:42:51.005Z,1015
2019-03-03T00:43:51.030Z,1015
2019-03-03T00:44:51.062Z,1015
2019-03-03T00:45:51.119Z,1015.1
2019-03-03T00:46:51.170Z,1015
2019-03-03T00:47:53.456Z,1015
2019-03-03T00:48:51.277Z,1015.1
2019-03-03T00:49:51.290Z,1015.1
2019-03-03T00:50:51.369Z,1015.1
2019-03-03T00:51:51.334Z,1015.1
2019-03-03T00:52:51.404Z,1015.1
2019-03-03T00:53:51.409Z,1015
2019-03-03T00:54:51.424Z,1015
2019-03-03T00:55:51.480Z,1015.1
2019-03-03T00:56:51.517Z,1015.1
2019-03-03T00:57:51.526Z,1015
2019-03-03T00:58:51.553Z,1015
2019-03-03T00:59:51.580Z,1015
2019-03-03T01:00:51.619Z,1014.9
2019-03-03T01:01:51.661Z,1014.9
2019-03-03T01:02:51.695Z,1014.9
2019-03-03T01:03:51.729Z,1015
2019-03-03T01:04:51.796Z,1014.8
2019-03-03T01:05:51.805Z,1014.8
2019-03-03T01:06:51.859Z,1014.9
2019-03-03T01:07:51.880Z,1014.9
2019-03-03T01:08:51.968Z,1014.8
2019-03-03T01:09:51.912Z,1014.8
2019-03-03T01:10:51.947Z,1014.8
2019-03-03T01:11:51.989Z,1014.8
2019-03-03T01:12:53.015Z,1014.8
2019-03-03T01:13:52.002Z,1014.8
2019-03-03T01:14:52.065Z,1014.8
2019-03-03T01:15:52.094Z,1014.9
2019-03-03T01:16:52.170Z,1014.8
2019-03-03T01:17:52.130Z,1014.7
2019-03-03T01:18:52.120Z,1014.9
2019-03-03T01:19:52.157Z,1014.8
2019-03-03T01:20:52.184Z,1014.8
2019-03-03T01:21:52.189Z,1014.8
2019-03-03T01:22:52.216Z,1014.9
2019-03-03T01:23:52.245Z,1014.7
2019-03-03T01:24:52.250Z,1014.8
2019-03-03T01:25:52.293Z,1014.7
2019-03-03T01:26:52.296Z,1014.8
2019-03-03T01:27:52.357Z,1014.7
2019-03-03T01:28:52.366Z,1014.7
2019-03-03T01:29:52.384Z,1014.7
2019-03-03T01:30:52.407Z,1014.7
2019-03-03T01:31:52.410Z,1014.7
2019-03-03T01:32:52.429Z,1014.7
2019-03-03T01:33:52.466Z,1014.7
2019-03-03T01:34:53.494Z,1014.7
2019-03-03T01:35:52.504Z,1014.7
2019-03-03T01:36:52.507Z,1014.7
2019-03-03T01:37:52.508Z,1014.7
2019-03-03T01:38:52.544Z,1014.7
2019-03-03T01:39:52.563Z,1014.7
2019-03-03T01:40:52.580Z,1014.8
2019-03-03T01:41:52.597Z,1014.8
2019-03-03T01:42:52.560Z,1014.6
2019-03-03T01:43:52.571Z,1014.7
2019-03-03T01:44:52.609Z,1014.7
2019-03-03T01:45:52.608Z,1014.7
2019-03-03T01:46:52.609Z,1014.7
2019-03-03T01:47:52.601Z,1014.8
2019-03-03T01:48:52.658Z,1014.7
2019-03-03T01:49:52.642Z,1014.7
2019-03-03T01:50:52.666Z,1014.7
2019-03-03T01:51:52.661Z,1014.8
2019-03-03T01:52:52.669Z,1014.7
2019-03-03T01:53:52.660Z,1014.7
2019-03-03T01:54:52.686Z,1014.7
2019-03-03T01:55:52.664Z,1014.7
2019-03-03T01:56:52.659Z,1014.7
2019-03-03T01:57:52.686Z,1014.7
2019-03-03T01:58:52.686Z,1014.7
2019-03-03T01:59:52.679Z,1014.7
2019-03-03T02:00:52.692Z,1014.7
2019-03-03T02:01:52.683Z,1014.7
2019-03-03T02:02:52.714Z,1014.7
2019-03-03T02:03:52.740Z,1014.6
2019-03-03T02:04:52.809Z,1014.7
2019-03-03T02:05:52.791Z,1014.7
2019-03-03T02:06:52.817Z,1014.6
2019-03-03T02:07:52.866Z,1014.7
2019-03-03T02:08:52.923Z,1014.7
2019-03-03T02:09:52.909Z,1014.7
2019-03-03T02:10:52.959Z,1014.7
2019-03-03T02:11:53.014Z,1014.6
2019-03-03T02:12:53.066Z,1014.7
2019-03-03T02:13:53.086Z,1014.7
2019-03-03T02:14:53.120Z,1014.7
2019-03-03T02:15:53.143Z,1014.7
2019-03-03T02:16:53.213Z,1014.6
2019-03-03T02:17:53.176Z,1014.6
2019-03-03T02:18:53.278Z,1014.6
2019-03-03T02:19:53.298Z,1014.6
2019-03-03T02:20:53.320Z,1014.6
2019-03-03T02:21:53.360Z,1014.6
2019-03-03T02:22:53.346Z,1014.6
2019-03-03T02:23:53.408Z,1014.6
2019-03-03T02:24:53.407Z,1014.6
2019-03-03T02:25:53.465Z,1014.6
2019-03-03T02:26:53.489Z,1014.6
2019-03-03T02:27:53.503Z,1014.6
2019-03-03T02:28:53.564Z,1014.5
2019-03-03T02:29:53.631Z,1014.7
2019-03-03T02:30:53.647Z,1014.6
2019-03-03T02:31:53.643Z,1014.6
2019-03-03T02:32:53.699Z,1014.7
2019-03-03T02:33:53.685Z,1014.6
2019-03-03T02:34:53.723Z,1014.6
2019-03-03T02:35:53.731Z,1014.5
2019-03-03T02:36:53.767Z,1014.5
2019-03-03T02:37:56.258Z,1014.5
2019-03-03T02:38:53.801Z,1014.5
2019-03-03T02:39:53.864Z,1014.5
2019-03-03T02:40:53.871Z,1014.4
2019-03-03T02:41:53.911Z,1014.5
2019-03-03T02:42:53.944Z,1014.5
2019-03-03T02:43:53.924Z,1014.5
2019-03-03T02:44:53.975Z,1014.5
2019-03-03T02:45:54.006Z,1014.5
2019-03-03T02:46:53.985Z,1014.4
2019-03-03T02:47:54.045Z,1014.4
2019-03-03T02:48:54.038Z,1014.5
2019-03-03T02:49:54.125Z,1014.3
2019-03-03T02:50:54.098Z,1014.5
2019-03-03T02:51:54.123Z,1014.4
2019-03-03T02:52:54.189Z,1014.4
2019-03-03T02:53:54.157Z,1014.4
2019-03-03T02:54:54.221Z,1014.4
2019-03-03T02:55:54.214Z,1014.5
2019-03-03T02:56:54.255Z,1014.4
2019-03-03T02:57:54.258Z,1014.4
2019-03-03T02:58:54.285Z,1014.3
2019-03-03T02:59:54.323Z,1014.3
2019-03-03T03:00:54.362Z,1014.3
2019-03-03T03:01:54.378Z,1014.4
2019-03-03T03:02:54.389Z,1014.3
2019-03-03T03:03:54.376Z,1014.4
2019-03-03T03:04:54.413Z,1014.2
2019-03-03T03:05:54.474Z,1014.4
2019-03-03T03:06:54.423Z,1014.3
2019-03-03T03:07:54.427Z,1014.3
2019-03-03T03:08:54.453Z,1014.3
2019-03-03T03:09:54.483Z,1014.3
2019-03-03T03:10:54.532Z,1014.4
2019-03-03T03:11:54.483Z,1014.3
2019-03-03T03:12:54.534Z,1014.4
2019-03-03T03:13:54.519Z,1014.4
2019-03-03T03:14:54.520Z,1014.3
2019-03-03T03:15:54.532Z,1014.4
2019-03-03T03:16:54.555Z,1014.3
2019-03-03T03:17:54.531Z,1014.4
2019-03-03T03:18:54.559Z,1014.3
2019-03-03T03:19:54.568Z,1014.2
2019-03-03T03:20:54.602Z,1014.3
2019-03-03T03:21:54.588Z,1014.2
2019-03-03T03:22:54.625Z,1014.3
2019-03-03T03:23:54.605Z,1014.4
2019-03-03T03:24:54.617Z,1014.3
2019-03-03T03:25:54.622Z,1014.2
2019-03-03T03:26:54.674Z,1014.4
2019-03-03T03:27:54.743Z,1014.4
2019-03-03T03:28:54.656Z,1014.4
2019-03-03T03:29:54.657Z,1014.4
2019-03-03T03:30:54.659Z,1014.4
2019-03-03T03:31:54.792Z,1014.4
2019-03-03T03:32:54.679Z,1014.3
2019-03-03T03:33:54.666Z,1014.3
2019-03-03T03:34:54.742Z,1014.3
2019-03-03T03:35:54.656Z,1014.3
2019-03-03T03:36:54.662Z,1014.2
2019-03-03T03:37:54.709Z,1014.3
2019-03-03T03:38:54.671Z,1014.3
2019-03-03T03:39:54.742Z,1014.3
2019-03-03T03:40:54.735Z,1014.3
2019-03-03T03:41:54.714Z,1014.3
2019-03-03T03:42:54.782Z,1014.4
2019-03-03T03:43:54.750Z,1014.2
2019-03-03T03:44:54.730Z,1014.2
2019-03-03T03:45:54.699Z,1014.2
2019-03-03T03:46:54.714Z,1014.3
2019-03-03T03:47:54.718Z,1014.2
2019-03-03T03:48:54.716Z,1014.2
2019-03-03T03:49:54.818Z,1014.2
2019-03-03T03:50:54.770Z,1014.3
2019-03-03T03:51:55.242Z,1014.3
2019-03-03T03:52:54.779Z,1014.2
2019-03-03T03:53:54.747Z,1014.3
2019-03-03T03:54:54.802Z,1014.3
2019-03-03T03:55:54.834Z,1014.3
2019-03-03T03:56:54.875Z,1014.3
2019-03-03T03:57:54.900Z,1014.2
2019-03-03T03:58:54.912Z,1014.2
2019-03-03T03:59:54.992Z,1014.3
2019-03-03T04:00:55.023Z,1014.2
2019-03-03T04:01:55.030Z,1014.2
2019-03-03T04:02:55.047Z,1014.2
2019-03-03T04:03:55.093Z,1014.3
2019-03-03T04:04:55.128Z,1014.1
2019-03-03T04:05:55.122Z,1014.1
2019-03-03T04:06:55.144Z,1014
2019-03-03T04:07:55.225Z,1014.1
2019-03-03T04:08:55.241Z,1014.2
2019-03-03T04:09:55.294Z,1014.1
2019-03-03T04:10:55.263Z,1014.1
2019-03-03T04:11:55.321Z,1014.2
2019-03-03T04:12:55.311Z,1014.1
2019-03-03T04:13:55.371Z,1014.1
2019-03-03T04:14:55.374Z,1014.2
2019-03-03T04:15:55.368Z,1014.2
2019-03-03T04:16:55.413Z,1014.2
2019-03-03T04:17:55.411Z,1014.1
2019-03-03T04:18:55.446Z,1014.1
2019-03-03T04:19:55.471Z,1014.2
2019-03-03T04:20:55.496Z,1014.1
2019-03-03T04:21:55.517Z,1014.2
2019-03-03T04:22:55.540Z,1014.2
2019-03-03T04:23:55.536Z,1014.2
2019-03-03T04:24:55.528Z,1014.1
2019-03-03T04:25:55.604Z,1014.1
2019-03-03T04:26:55.563Z,1014.2
2019-03-03T04:27:55.579Z,1014.1
2019-03-03T04:28:55.619Z,1014.2
2019-03-03T04:29:55.608Z,1014.2
2019-03-03T04:30:55.701Z,1014
2019-03-03T04:31:55.674Z,1014.1
2019-03-03T04:32:55.670Z,1014.1
2019-03-03T04:33:55.685Z,1014.1
2019-03-03T04:34:55.684Z,1014
2019-03-03T04:35:55.722Z,1014
2019-03-03T04:36:55.693Z,1014
2019-03-03T04:37:55.706Z,1014
2019-03-03T04:38:55.762Z,1013.9
2019-03-03T04:39:55.753Z,1013.8
2019-03-03T04:40:55.753Z,1013.9
2019-03-03T04:41:55.728Z,1013.9
2019-03-03T04:42:55.757Z,1013.9
2019-03-03T04:43:55.931Z,1013.9
2019-03-03T04:44:55.770Z,1013.9
2019-03-03T04:45:55.835Z,1013.9
2019-03-03T04:46:55.795Z,1013.9
2019-03-03T04:47:55.797Z,1013.9
2019-03-03T04:48:55.800Z,1013.9
2019-03-03T04:49:55.810Z,1013.9
2019-03-03T04:50:55.800Z,1013.8
2019-03-03T04:51:55.826Z,1013.8
2019-03-03T04:52:55.866Z,1013.7
2019-03-03T04:53:55.829Z,1013.8
2019-03-03T04:54:55.851Z,1014
2019-03-03T04:55:55.831Z,1013.8
2019-03-03T04:56:55.849Z,1013.8
2019-03-03T04:57:55.827Z,1013.8
2019-03-03T04:58:55.824Z,1013.9
2019-03-03T04:59:55.892Z,1013.8
2019-03-03T05:00:55.848Z,1013.8
2019-03-03T05:01:55.896Z,1013.9
2019-03-03T05:02:55.954Z,1013.8
2019-03-03T05:03:55.935Z,1013.9
2019-03-03T05:04:56.006Z,1013.8
2019-03-03T05:05:56.044Z,1013.9
2019-03-03T05:06:56.073Z,1013.8
2019-03-03T05:07:56.137Z,1013.9
2019-03-03T05:08:56.101Z,1013.8
2019-03-03T05:09:56.160Z,1013.8
2019-03-03T05:10:56.159Z,1013.8
2019-03-03T05:11:56.241Z,1013.8
2019-03-03T05:12:56.251Z,1013.7
2019-03-03T05:13:56.287Z,1013.8
2019-03-03T05:14:56.329Z,1013.8
2019-03-03T05:15:56.493Z,1013.8
2019-03-03T05:16:56.423Z,1013.7
2019-03-03T05:17:56.464Z,1013.7
2019-03-03T05:18:56.492Z,1013.7
2019-03-03T05:19:56.490Z,1013.8
2019-03-03T05:20:56.517Z,1013.7
2019-03-03T05:22:28.850Z,1013.8
2019-03-03T05:22:56.683Z,1013.7
2019-03-03T05:23:56.622Z,1013.7
2019-03-03T05:24:56.678Z,1013.7
2019-03-03T05:25:56.678Z,1013.7
2019-03-03T05:26:56.738Z,1013.7
2019-03-03T05:27:56.756Z,1013.7
2019-03-03T05:28:56.790Z,1013.7
2019-03-03T05:29:56.793Z,1013.7
2019-03-03T05:30:56.798Z,1013.7
2019-03-03T05:31:56.847Z,1013.7
2019-03-03T05:32:56.866Z,1013.7
2019-03-03T05:33:56.878Z,1013.7
2019-03-03T05:34:56.917Z,1013.7
2019-03-03T05:35:56.922Z,1013.7
2019-03-03T05:36:56.980Z,1013.6
2019-03-03T05:37:56.921Z,1013.6
2019-03-03T05:38:56.986Z,1013.7
2019-03-03T05:39:57.028Z,1013.7
2019-03-03T05:40:57.072Z,1013.6
2019-03-03T05:41:57.043Z,1013.6
2019-03-03T05:42:57.079Z,1013.6
2019-03-03T05:43:57.075Z,1013.5
2019-03-03T05:44:57.183Z,1013.5
2019-03-03T05:45:57.216Z,1013.6
2019-03-03T05:46:57.155Z,1013.5
2019-03-03T05:47:57.239Z,1013.5
2019-03-03T05:48:57.241Z,1013.6
2019-03-03T05:49:57.214Z,1013.4
2019-03-03T05:50:57.251Z,1013.6
2019-03-03T05:51:57.235Z,1013.5
2019-03-03T05:52:57.831Z,1013.4
2019-03-03T05:53:57.339Z,1013.4
2019-03-03T05:54:57.322Z,1013.4
2019-03-03T05:55:57.363Z,1013.4
2019-03-03T05:56:57.369Z,1013.4
2019-03-03T05:57:57.386Z,1013.3
2019-03-03T05:58:57.784Z,1013.4
2019-03-03T05:59:57.412Z,1013.4
2019-03-03T06:00:57.389Z,1013.4
2019-03-03T06:01:57.417Z,1013.4
2019-03-03T06:02:57.446Z,1013.4
2019-03-03T06:03:57.460Z,1013.4
2019-03-03T06:04:57.486Z,1013.4
2019-03-03T06:05:57.455Z,1013.3
2019-03-03T06:06:57.497Z,1013.3
2019-03-03T06:07:57.557Z,1013.3
2019-03-03T06:08:57.477Z,1013.4
2019-03-03T06:09:57.502Z,1013.3
2019-03-03T06:10:57.490Z,1013.3
2019-03-03T06:11:57.513Z,1013.3
2019-03-03T06:12:57.511Z,1013.2
2019-03-03T06:13:57.530Z,1013.3
2019-03-03T06:14:57.531Z,1013.2
2019-03-03T06:15:57.561Z,1013.3
2019-03-03T06:16:57.538Z,1013.1
2019-03-03T06:17:57.539Z,1013.2
2019-03-03T06:18:57.521Z,1013.2
2019-03-03T06:19:57.517Z,1013.2
2019-03-03T06:20:57.558Z,1013.2
2019-03-03T06:21:57.601Z,1013.2
2019-03-03T06:22:57.678Z,1013.2
2019-03-03T06:23:57.748Z,1013.2
2019-03-03T06:24:57.813Z,1013.2
2019-03-03T06:25:57.948Z,1013.2
2019-03-03T06:26:57.840Z,1013.2
2019-03-03T06:27:57.871Z,1013.2
2019-03-03T06:28:57.879Z,1013.2
2019-03-03T06:29:57.904Z,1013.2
2019-03-03T06:30:57.991Z,1013.2
2019-03-03T06:31:57.955Z,1013.2
2019-03-03T06:32:58.007Z,1013.3
2019-03-03T06:33:58.068Z,1013.3
2019-03-03T06:34:58.164Z,1013.2
2019-03-03T06:35:58.093Z,1013.4
2019-03-03T06:36:58.110Z,1013.3
2019-03-03T06:37:58.217Z,1013.3
2019-03-03T06:38:58.238Z,1013.3
2019-03-03T06:39:58.220Z,1013.3
2019-03-03T06:40:58.292Z,1013.3
2019-03-03T06:41:58.337Z,1013.3
2019-03-03T06:42:58.355Z,1013.3
2019-03-03T06:43:58.518Z,1013.4
2019-03-03T06:44:58.425Z,1013.4
2019-03-03T06:45:58.460Z,1013.3
2019-03-03T06:46:58.458Z,1013.2
2019-03-03T06:47:58.498Z,1013.3
2019-03-03T06:48:58.576Z,1013.3
2019-03-03T06:49:58.596Z,1013.3
2019-03-03T06:50:58.585Z,1013.2
2019-03-03T06:51:58.615Z,1013.3
2019-03-03T06:52:58.659Z,1013.3
2019-03-03T06:53:58.666Z,1013.3
2019-03-03T06:54:58.729Z,1013.3
2019-03-03T06:55:58.776Z,1013.3
2019-03-03T06:56:58.784Z,1013.4
2019-03-03T06:57:58.760Z,1013.3
2019-03-03T06:58:58.797Z,1013.3
2019-03-03T06:59:58.859Z,1013.2
2019-03-03T07:00:58.909Z,1013.3
2019-03-03T07:01:58.885Z,1013.2
2019-03-03T07:02:58.925Z,1013.3
2019-03-03T07:03:59.025Z,1013.3
2019-03-03T07:04:58.977Z,1013.4
2019-03-03T07:05:58.986Z,1013.3
2019-03-03T07:06:59.037Z,1013.4
2019-03-03T07:07:59.046Z,1013.3
2019-03-03T07:08:59.054Z,1013.5
2019-03-03T07:09:59.076Z,1013.5
2019-03-03T07:10:59.082Z,1013.5
2019-03-03T07:11:59.175Z,1013.4
2019-03-03T07:12:59.146Z,1013.4
2019-03-03T07:13:59.180Z,1013.4
2019-03-03T07:14:59.213Z,1013.4
2019-03-03T07:15:59.236Z,1013.4
2019-03-03T07:16:59.262Z,1013.4
2019-03-03T07:17:59.280Z,1013.3
2019-03-03T07:18:59.388Z,1013.2
2019-03-03T07:19:59.386Z,1013.3
2019-03-03T07:20:59.380Z,1013.2
2019-03-03T07:21:59.381Z,1013.3
2019-03-03T07:22:59.386Z,1013.2
2019-03-03T07:23:59.394Z,1013.2
2019-03-03T07:24:59.426Z,1013.2
2019-03-03T07:25:59.453Z,1013.3
2019-03-03T07:26:59.448Z,1013.3
2019-03-03T07:27:59.451Z,1013.3
2019-03-03T07:28:59.509Z,1013.2
2019-03-03T07:29:59.478Z,1013.2
2019-03-03T07:30:59.549Z,1013.3
2019-03-03T07:31:59.526Z,1013.3
2019-03-03T07:32:59.554Z,1013.3
2019-03-03T07:33:59.558Z,1013.1
2019-03-03T07:34:59.547Z,1013.3
2019-03-03T07:35:59.571Z,1013.2
2019-03-03T07:36:59.588Z,1013.1
2019-03-03T07:37:59.598Z,1013.3
2019-03-03T07:38:59.625Z,1013.3
2019-03-03T07:39:59.625Z,1013.3
2019-03-03T07:40:59.680Z,1013.3
2019-03-03T07:41:59.664Z,1013.3
2019-03-03T07:42:59.652Z,1013.3
2019-03-03T07:43:59.668Z,1013.3
2019-03-03T07:44:59.628Z,1013.3
2019-03-03T07:46:02.125Z,1013.3
2019-03-03T07:46:59.791Z,1013.3
2019-03-03T07:47:59.777Z,1013.3
2019-03-03T07:48:59.696Z,1013.3
2019-03-03T07:49:59.690Z,1013.3
2019-03-03T07:50:59.807Z,1013.3
2019-03-03T07:51:59.710Z,1013.3
2019-03-03T07:52:59.715Z,1013.2
2019-03-03T07:53:59.706Z,1013.3
2019-03-03T07:54:59.731Z,1013.2
2019-03-03T07:55:59.719Z,1013.3
2019-03-03T07:56:59.708Z,1013.2
2019-03-03T07:57:59.719Z,1013.4
2019-03-03T07:58:59.752Z,1013.3
2019-03-03T07:59:59.739Z,1013.2
2019-03-03T08:00:59.744Z,1013.3
2019-03-03T08:01:59.748Z,1013.3
2019-03-03T08:02:59.830Z,1013.3
2019-03-03T08:03:59.813Z,1013.2
2019-03-03T08:04:59.776Z,1013.2
2019-03-03T08:05:59.777Z,1013.3
2019-03-03T08:06:59.837Z,1013.2
2019-03-03T08:07:59.804Z,1013.3
2019-03-03T08:08:59.923Z,1013.2
2019-03-03T08:09:59.821Z,1013.1
2019-03-03T08:10:59.836Z,1013.1
2019-03-03T08:12:00.926Z,1013.1
2019-03-03T08:13:08.870Z,1013.1
2019-03-03T08:13:59.846Z,1013
2019-03-03T08:14:59.884Z,1013
2019-03-03T08:15:59.872Z,1013
2019-03-03T08:16:59.896Z,1013
2019-03-03T08:18:02.940Z,1013.1
2019-03-03T08:18:59.919Z,1013.1
2019-03-03T08:19:59.896Z,1013
2019-03-03T08:20:59.953Z,1013
2019-03-03T08:22:00.043Z,1013
2019-03-03T08:22:59.959Z,1013
2019-03-03T08:23:59.931Z,1012.9
2019-03-03T08:24:59.952Z,1013
2019-03-03T08:25:59.966Z,1012.9
2019-03-03T08:26:59.965Z,1012.9
2019-03-03T08:28:00.004Z,1012.9
2019-03-03T08:28:59.960Z,1012.9
2019-03-03T08:29:59.966Z,1012.9
2019-03-03T08:30:59.971Z,1013
2019-03-03T08:31:59.952Z,1013
2019-03-03T08:32:59.968Z,1013
2019-03-03T08:34:00.016Z,1012.9
2019-03-03T08:35:00.032Z,1013
2019-03-03T08:36:00.045Z,1012.8
2019-03-03T08:37:00.304Z,1012.9
2019-03-03T08:38:00.082Z,1012.9
2019-03-03T08:39:00.079Z,1012.8
2019-03-03T08:40:00.284Z,1013
2019-03-03T08:41:00.107Z,1012.9
2019-03-03T08:42:00.108Z,1012.8
2019-03-03T08:43:00.177Z,1012.8
2019-03-03T08:44:00.135Z,1012.8
2019-03-03T08:45:00.260Z,1012.7
2019-03-03T08:46:00.201Z,1012.7
2019-03-03T08:47:00.164Z,1012.9
2019-03-03T08:48:00.185Z,1012.7
2019-03-03T08:49:00.214Z,1012.8
2019-03-03T08:50:00.301Z,1012.8
2019-03-03T08:51:00.251Z,1012.9
2019-03-03T08:52:00.227Z,1012.8
2019-03-03T08:53:00.251Z,1012.9
2019-03-03T08:54:00.239Z,1012.8
2019-03-03T08:55:00.451Z,1012.8
2019-03-03T08:56:00.228Z,1012.9
2019-03-03T08:57:00.224Z,1012.8
2019-03-03T08:58:00.262Z,1012.8
2019-03-03T08:59:00.296Z,1012.8
2019-03-03T09:00:00.324Z,1012.8
2019-03-03T09:01:01.357Z,1012.9
2019-03-03T09:02:02.742Z,1012.8
2019-03-03T09:03:00.266Z,1012.8
2019-03-03T09:04:00.287Z,1012.8
2019-03-03T09:05:00.397Z,1012.9
2019-03-03T09:06:00.323Z,1012.8
2019-03-03T09:07:00.298Z,1012.8
2019-03-03T09:08:00.632Z,1012.9
2019-03-03T09:09:00.393Z,1012.8
2019-03-03T09:10:02.893Z,1012.8
2019-03-03T09:11:00.422Z,1012.8
2019-03-03T09:12:00.973Z,1012.8
2019-03-03T09:13:00.494Z,1012.7
2019-03-03T09:14:00.525Z,1012.8
2019-03-03T09:15:00.546Z,1012.8
2019-03-03T09:16:00.595Z,1012.8
2019-03-03T09:17:00.615Z,1012.7
2019-03-03T09:18:00.608Z,1012.8
2019-03-03T09:19:00.640Z,1012.8
2019-03-03T09:20:00.653Z,1012.7
2019-03-03T09:21:00.713Z,1012.7
2019-03-03T09:22:00.786Z,1012.9
2019-03-03T09:23:01.791Z,1012.8
2019-03-03T09:24:00.886Z,1012.9
2019-03-03T09:25:00.882Z,1012.7
2019-03-03T09:26:00.891Z,1012.8
2019-03-03T09:27:01.455Z,1012.8
2019-03-03T09:28:00.959Z,1012.8
2019-03-03T09:29:00.992Z,1012.9
2019-03-03T09:30:01.023Z,1012.9
2019-03-03T09:31:01.017Z,1012.8
2019-03-03T09:32:01.046Z,1012.9
2019-03-03T09:33:01.145Z,1013
2019-03-03T09:34:01.211Z,1012.8
2019-03-03T09:35:01.155Z,1012.7
2019-03-03T09:36:01.216Z,1012.8
2019-03-03T09:37:01.243Z,1012.9
2019-03-03T09:38:01.376Z,1012.9
2019-03-03T09:39:01.309Z,1012.9
2019-03-03T09:40:08.941Z,1012.9
2019-03-03T09:41:01.404Z,1012.8
2019-03-03T09:42:01.340Z,1012.9
2019-03-03T09:43:01.471Z,1012.9
2019-03-03T09:44:10.485Z,1012.9
2019-03-03T09:45:01.419Z,1012.8
2019-03-03T09:46:01.462Z,1013
2019-03-03T09:47:02.546Z,1012.8
2019-03-03T09:48:01.642Z,1013
2019-03-03T09:49:02.518Z,1012.8
2019-03-03T09:50:01.557Z,1012.9
2019-03-03T09:51:01.599Z,1012.8
2019-03-03T09:52:01.574Z,1012.9
2019-03-03T09:53:01.583Z,1012.8
2019-03-03T09:54:01.628Z,1012.8
2019-03-03T09:55:01.675Z,1012.7
2019-03-03T09:56:01.897Z,1012.9
2019-03-03T09:57:01.664Z,1013
2019-03-03T09:58:01.670Z,1013
2019-03-03T09:59:01.692Z,1012.9
2019-03-03T10:00:01.720Z,1013
2019-03-03T10:01:01.727Z,1013.1
2019-03-03T10:02:01.791Z,1012.9
2019-03-03T10:03:01.757Z,1013
2019-03-03T10:04:01.811Z,1012.9
2019-03-03T10:05:01.797Z,1013
2019-03-03T10:06:01.829Z,1013
2019-03-03T10:07:01.999Z,1012.9
2019-03-03T10:08:01.901Z,1013
2019-03-03T10:09:01.853Z,1013.1
2019-03-03T10:10:01.836Z,1013
2019-03-03T10:11:01.843Z,1012.9
2019-03-03T10:12:01.894Z,1012.9
2019-03-03T10:13:01.966Z,1013
2019-03-03T10:14:01.916Z,1012.9
2019-03-03T10:15:01.894Z,1012.9
2019-03-03T10:16:01.906Z,1013
2019-03-03T10:17:01.908Z,1012.9
2019-03-03T10:18:05.021Z,1013
2019-03-03T10:19:07.069Z,1012.9
2019-03-03T10:20:01.913Z,1012.8
2019-03-03T10:21:03.217Z,1012.9
2019-03-03T10:22:01.905Z,1012.7
2019-03-03T10:23:01.910Z,1012.7
2019-03-03T10:24:01.914Z,1012.8
2019-03-03T10:25:01.953Z,1012.9
2019-03-03T10:26:01.952Z,1012.8
2019-03-03T10:27:02.007Z,1012.8
2019-03-03T10:28:02.060Z,1012.8
2019-03-03T10:29:02.221Z,1012.8
2019-03-03T10:30:02.082Z,1012.8
2019-03-03T10:31:02.138Z,1012.7
2019-03-03T10:32:02.160Z,1012.7
2019-03-03T10:33:02.205Z,1012.7
2019-03-03T10:34:02.266Z,1012.6
2019-03-03T10:35:02.309Z,1012.7
2019-03-03T10:36:02.271Z,1012.5
2019-03-03T10:37:02.353Z,1012.6
2019-03-03T10:38:02.402Z,1012.5
2019-03-03T10:39:02.582Z,1012.5
2019-03-03T10:40:02.470Z,1012.4
2019-03-03T10:41:02.516Z,1012.5
2019-03-03T10:42:02.580Z,1012.4
2019-03-03T10:43:02.589Z,1012.5
2019-03-03T10:44:02.699Z,1012.5
2019-03-03T10:45:02.654Z,1012.4
2019-03-03T10:46:02.663Z,1012.3
2019-03-03T10:47:02.682Z,1012.4
2019-03-03T10:48:02.717Z,1012.6
2019-03-03T10:49:02.762Z,1012.5
2019-03-03T10:50:02.765Z,1012.4
2019-03-03T10:51:02.813Z,1012.5
2019-03-03T10:52:02.910Z,1012.4
2019-03-03T10:53:02.885Z,1012.4
2019-03-03T10:54:02.901Z,1012.4
2019-03-03T10:55:02.994Z,1012.6
2019-03-03T10:56:02.954Z,1012.5
2019-03-03T10:57:03.037Z,1012.5
2019-03-03T10:58:03.144Z,1012.3
2019-03-03T10:59:03.088Z,1012.5
2019-03-03T11:00:03.420Z,1012.4
2019-03-03T11:01:03.177Z,1012.3
2019-03-03T11:02:03.167Z,1012.2
2019-03-03T11:03:03.189Z,1012.3
2019-03-03T11:04:03.229Z,1012.2
2019-03-03T11:05:03.259Z,1012.3
2019-03-03T11:06:03.517Z,1012.3
2019-03-03T11:07:04.334Z,1012.3
2019-03-03T11:08:03.315Z,1012.3
2019-03-03T11:09:03.346Z,1012.3
2019-03-03T11:10:03.363Z,1012.2
2019-03-03T11:11:03.390Z,1012.2
2019-03-03T11:12:03.456Z,1012.1
2019-03-03T11:13:03.452Z,1012.3
2019-03-03T11:14:03.506Z,1012.1
2019-03-03T11:15:03.523Z,1012.1
2019-03-03T11:16:03.491Z,1012
2019-03-03T11:17:03.518Z,1012.1
2019-03-03T11:18:03.570Z,1012.2
2019-03-03T11:19:03.578Z,1012.1
2019-03-03T11:20:03.614Z,1012
2019-03-03T11:21:03.638Z,1012.2
2019-03-03T11:22:03.617Z,1012.1
2019-03-03T11:23:03.673Z,1012
2019-03-03T11:24:03.697Z,1012
2019-03-03T11:25:03.705Z,1012.1
2019-03-03T11:26:03.726Z,1012
2019-03-03T11:27:03.767Z,1012.1
2019-03-03T11:28:03.769Z,1012.2
2019-03-03T11:29:03.835Z,1012.1
2019-03-03T11:30:03.927Z,1012
2019-03-03T11:31:04.111Z,1012.1
2019-03-03T11:32:03.877Z,1012.1
2019-03-03T11:33:03.868Z,1012.2
2019-03-03T11:34:03.875Z,1012
2019-03-03T11:35:04.294Z,1012.1
2019-03-03T11:36:03.903Z,1012
2019-03-03T11:37:03.933Z,1012
2019-03-03T11:38:03.938Z,1011.9
2019-03-03T11:39:04.034Z,1012
2019-03-03T11:40:03.990Z,1012
2019-03-03T11:41:04.011Z,1012
2019-03-03T11:42:04.350Z,1011.9
2019-03-03T11:43:04.416Z,1012.1
2019-03-03T11:44:04.410Z,1012
2019-03-03T11:45:04.435Z,1011.9
2019-03-03T11:46:04.291Z,1012.1
2019-03-03T11:47:04.425Z,1011.9
2019-03-03T11:48:04.728Z,1011.9
2019-03-03T11:49:06.404Z,1011.8
2019-03-03T11:50:04.081Z,1011.9
2019-03-03T11:51:04.120Z,1011.9
2019-03-03T11:52:04.141Z,1011.9
2019-03-03T11:53:04.226Z,1011.8
2019-03-03T11:54:04.279Z,1011.8
2019-03-03T11:55:36.669Z,1011.7
2019-03-03T11:56:04.176Z,1011.7
2019-03-03T11:57:04.192Z,1011.7
2019-03-03T11:58:04.178Z,1011.7
2019-03-03T11:59:04.209Z,1011.7
2019-03-03T12:00:04.184Z,1011.8
2019-03-03T12:01:04.219Z,1011.9
2019-03-03T12:02:04.228Z,1011.7
2019-03-03T12:03:04.312Z,1011.8
2019-03-03T12:04:04.211Z,1011.9
2019-03-03T12:05:04.187Z,1011.8
2019-03-03T12:06:04.202Z,1011.8
2019-03-03T12:07:06.703Z,1011.7
2019-03-03T12:08:04.259Z,1011.6
2019-03-03T12:09:04.209Z,1011.6
2019-03-03T12:10:04.207Z,1011.6
2019-03-03T12:11:04.277Z,1011.4
2019-03-03T12:12:04.257Z,1011.5
2019-03-03T12:13:04.274Z,1011.6
2019-03-03T12:14:04.267Z,1011.5
2019-03-03T12:15:04.274Z,1011.5
2019-03-03T12:16:04.299Z,1011.5
2019-03-03T12:17:04.234Z,1011.6
2019-03-03T12:18:04.355Z,1011.4
2019-03-03T12:19:04.665Z,1011.5
2019-03-03T12:20:04.676Z,1011.5
2019-03-03T12:21:04.737Z,1011.5
2019-03-03T12:22:04.723Z,1011.5
2019-03-03T12:23:04.604Z,1011.4
2019-03-03T12:24:04.327Z,1011.4
2019-03-03T12:25:04.342Z,1011.3
2019-03-03T12:26:04.335Z,1011.5
2019-03-03T12:27:06.965Z,1011.6
2019-03-03T12:28:04.361Z,1011.3
2019-03-03T12:29:04.402Z,1011.4
2019-03-03T12:30:04.364Z,1011.4
2019-03-03T12:31:04.395Z,1011.4
2019-03-03T12:32:04.448Z,1011.5
2019-03-03T12:33:04.381Z,1011.4
2019-03-03T12:34:04.344Z,1011.4